Time;durP1;ratioP1;P1;durP2;ratioP2;P2;SDS_P1;SDS_P2;PMS_P1;PMS_P2;Temp;Humidity;BMP_temperature;BMP_pressure;BME280_temperature;BME280_humidity;BME280_pressure;Samples;Min_cycle;Max_cycle;Signal;HPM_P1;HPM_P2
2021/04/08 00:02:17;;;;;;;34.57;18.53;;;102.60;2022.40;;;;;;5019686;28;20040;-88
2021/04/08 00:04:43;;;;;;;30.47;14.33;;;102.50;2048.00;;;;;;5005285;28;20037;-88
2021/04/08 00:07:09;;;;;;;25.83;14.27;;;102.40;1971.20;;;;;;5021309;28;20054;-89
2021/04/08 00:09:35;;;;;;;23.53;14.20;;;102.50;1971.20;;;;;;5023909;28;20042;-89
2021/04/08 00:12:01;;;;;;;24.33;13.60;;;102.50;1996.80;;;;;;5018743;28;20018;-89
2021/04/08 00:14:27;;;;;;;26.47;13.73;;;102.50;1996.80;;;;;;5012442;28;20010;-90
2021/04/08 00:16:53;;;;;;;22.27;13.80;;;102.50;1996.80;;;;;;5016999;28;20014;-89
2021/04/08 00:19:20;;;;;;;29.67;15.43;;;102.70;2022.40;;;;;;5015993;28;20026;-90
2021/04/08 00:21:46;;;;;;;28.07;15.07;;;102.40;2022.40;;;;;;5005959;28;20117;-90
2021/04/08 00:24:12;;;;;;;26.20;16.60;;;102.50;2022.40;;;;;;5006431;28;20161;-90
2021/04/08 00:26:39;;;;;;;31.90;17.33;;;102.40;2048.00;;;;;;5012323;28;20057;-89
2021/04/08 00:29:05;;;;;;;31.43;20.67;;;102.40;2048.00;;;;;;5018185;28;20104;-90
2021/04/08 00:31:31;;;;;;;36.27;21.80;;;102.40;2099.20;;;;;;5017743;28;20036;-88
2021/04/08 00:34:00;;;;;;;34.37;20.00;;;102.40;2073.60;;;;;;5015660;28;20393;-90
2021/04/08 00:36:29;;;;;;;30.37;18.37;;;77.70;2073.60;;;;;;5015505;28;20054;-89
2021/04/08 00:38:58;;;;;;;33.37;20.43;;;77.70;2073.60;;;;;;5014886;28;20038;-90
2021/04/08 00:44:04;;;;;;;35.77;19.03;;;77.70;2073.60;;;;;;5032788;28;20370;-89
2021/04/08 00:46:30;;;;;;;32.63;19.37;;;77.70;2048.00;;;;;;5017347;28;20084;-90
2021/04/08 00:49:01;;;;;;;27.00;16.87;;;77.60;2073.60;;;;;;5017367;28;20091;-91
2021/04/08 00:51:36;;;;;;;25.73;15.70;;;77.50;2124.80;;;;;;5013009;28;20057;-92
2021/04/08 00:54:05;;;;;;;21.53;12.60;;;77.50;2048.00;;;;;;5003545;28;20029;-91
2021/04/08 00:56:43;;;;;;;23.43;13.37;;;77.50;2048.00;;;;;;5004261;28;20034;-92
2021/04/08 00:59:22;;;;;;;21.40;11.93;;;77.50;2073.60;;;;;;5004026;28;20036;-92
2021/04/08 01:02:00;;;;;;;26.53;14.60;;;77.60;2073.60;;;;;;5003770;28;20045;-92
2021/04/08 01:04:37;;;;;;;24.83;14.80;;;77.60;2073.60;;;;;;5003597;28;20029;-92
2021/04/08 01:07:14;;;;;;;21.13;13.43;;;77.60;2073.60;;;;;;5010760;28;20081;-93
2021/04/08 01:09:43;;;;;;;26.00;14.07;;;77.60;2073.60;;;;;;5010384;28;20017;-93
2021/04/08 01:12:54;;;;;;;;;;;;;;;;;;;;;
2021/04/08 02:02:16;;;;;;;;;;;;;;;;;;;;;
2021/04/08 02:04:56;;;;;;;30.30;17.80;;;77.20;2073.60;;;;;;4939001;29;20036;-94
2021/04/08 02:07:25;;;;;;;31.63;18.17;;;76.90;2048.00;;;;;;4922790;29;20027;-93
2021/04/08 02:09:53;;;;;;;34.30;18.17;;;77.20;2048.00;;;;;;4922532;29;20460;-92
2021/04/08 02:12:19;;;;;;;34.83;17.33;;;77.20;2073.60;;;;;;4922442;29;20032;-92
2021/04/08 02:15:07;;;;;;;26.77;14.40;;;77.20;2048.00;;;;;;4922184;29;20031;-92
2021/04/08 02:17:57;;;;;;;24.40;14.43;;;77.20;2022.40;;;;;;4922451;29;20104;-92
2021/04/08 02:20:31;;;;;;;24.33;13.47;;;77.30;2022.40;;;;;;4922850;29;20028;-91
2021/04/08 02:23:05;;;;;;;17.80;11.27;;;77.10;1996.80;;;;;;4922859;29;20032;-92
2021/04/08 02:25:34;;;;;;;36.23;13.30;;;77.10;1996.80;;;;;;4927137;29;20087;-91
2021/04/08 02:28:08;;;;;;;14.83;8.63;;;77.10;1996.80;;;;;;4945217;28;20087;-91
2021/04/08 02:30:47;;;;;;;16.00;8.13;;;77.20;1971.20;;;;;;4943818;29;20027;-90
2021/04/08 02:33:21;;;;;;;14.90;8.70;;;77.10;1945.60;;;;;;4945419;28;20099;-92
2021/04/08 02:35:48;;;;;;;12.87;6.43;;;77.20;1920.00;;;;;;4943289;28;20043;-91
2021/04/08 02:38:15;;;;;;;17.93;9.77;;;51.90;1920.00;;;;;;4944877;29;20008;-91
2021/04/08 02:40:41;;;;;;;19.13;10.00;;;77.10;1945.60;;;;;;4945300;28;20176;-91
2021/04/08 02:43:11;;;;;;;16.97;8.43;;;77.20;1945.60;;;;;;4945080;28;20020;-91
2021/04/08 02:45:39;;;;;;;21.77;12.77;;;77.20;1945.60;;;;;;4945521;29;20012;-89
2021/04/08 02:48:16;;;;;;;17.73;10.70;;;77.20;1945.60;;;;;;4945359;28;20055;-90
2021/04/08 02:50:43;;;;;;;17.27;9.23;;;77.20;1996.80;;;;;;4960601;28;20031;-90
2021/04/08 02:53:27;;;;;;;21.43;12.40;;;77.10;1971.20;;;;;;4944673;29;20036;-90
2021/04/08 02:56:21;;;;;;;11.93;7.17;;;77.00;1971.20;;;;;;4960356;28;20031;-90
2021/04/08 02:58:47;;;;;;;11.82;5.97;;;76.90;1971.20;;;;;;4959701;28;20079;-90
2021/04/08 03:01:17;;;;;;;11.10;6.50;;;77.00;1996.80;;;;;;4942989;29;20055;-90
2021/04/08 03:04:00;;;;;;;13.67;7.47;;;76.80;2022.40;;;;;;4926642;29;20041;-90
2021/04/08 03:06:27;;;;;;;12.25;7.53;;;76.80;2022.40;;;;;;4922675;29;20038;-89
2021/04/08 03:08:55;;;;;;;11.77;7.67;;;77.20;2022.40;;;;;;4921268;29;20040;-90
2021/04/08 03:11:28;;;;;;;15.53;7.67;;;76.90;2022.40;;;;;;4921327;29;20032;-89
2021/04/08 03:13:58;;;;;;;19.37;8.70;;;76.90;2022.40;;;;;;4921683;29;20052;-89
2021/04/08 03:16:30;;;;;;;16.90;10.60;;;76.90;2022.40;;;;;;4921410;29;20083;-89
2021/04/08 03:18:57;;;;;;;14.23;10.10;;;76.90;2022.40;;;;;;4921663;29;20492;-89
2021/04/08 03:21:27;;;;;;;16.73;12.47;;;76.90;2022.40;;;;;;4921069;29;20110;-89
2021/04/08 03:23:55;;;;;;;16.83;12.60;;;76.90;2022.40;;;;;;4937576;29;20485;-89
2021/04/08 03:26:28;;;;;;;18.67;9.87;;;76.90;2022.40;;;;;;4921298;29;20039;-89
2021/04/08 03:28:55;;;;;;;24.07;10.97;;;76.90;2048.00;;;;;;4920926;29;20028;-88
2021/04/08 03:31:22;;;;;;;20.73;12.20;;;77.00;2073.60;;;;;;4921002;29;20052;-88
2021/04/08 03:33:49;;;;;;;21.83;13.50;;;76.90;2099.20;;;;;;4920601;29;20024;-87
2021/04/08 03:36:16;;;;;;;22.33;13.67;;;76.90;2073.60;;;;;;4920533;29;20032;-88
2021/04/08 03:38:43;;;;;;;27.73;14.73;;;77.70;2073.60;;;;;;4920821;29;20114;-88
2021/04/08 03:41:09;;;;;;;28.40;15.63;;;76.90;2073.60;;;;;;4920809;29;20024;-88
2021/04/08 03:43:36;;;;;;;29.47;16.60;;;76.90;2099.20;;;;;;4920702;29;20039;-87
2021/04/08 03:46:04;;;;;;;33.87;16.03;;;76.80;2099.20;;;;;;4921113;29;20024;-87
2021/04/08 03:48:33;;;;;;;23.67;14.07;;;76.80;2073.60;;;;;;4920912;29;20050;-87
2021/04/08 03:50:59;;;;;;;17.90;10.17;;;76.80;2073.60;;;;;;4921315;29;20030;-87
2021/04/08 03:53:26;;;;;;;21.43;11.03;;;76.90;2073.60;;;;;;4921532;29;20038;-86
2021/04/08 03:55:55;;;;;;;21.60;12.37;;;76.80;2073.60;;;;;;4921015;29;20028;-87
2021/04/08 03:58:21;;;;;;;24.90;15.03;;;76.80;2073.60;;;;;;4921151;29;20035;-87
2021/04/08 04:00:48;;;;;;;28.60;17.00;;;52.10;2124.80;;;;;;4920419;29;20058;-87
2021/04/08 04:03:16;;;;;;;27.00;14.00;;;52.10;2099.20;;;;;;4920296;29;20095;-87
2021/04/08 04:05:43;;;;;;;22.07;13.33;;;52.10;2073.60;;;;;;4920858;29;20023;-86
2021/04/08 04:08:11;;;;;;;27.27;15.07;;;52.10;2099.20;;;;;;4920569;29;20028;-86
2021/04/08 04:10:38;;;;;;;29.73;16.80;;;76.80;2099.20;;;;;;4920311;29;20043;-86
2021/04/08 04:13:05;;;;;;;23.27;14.83;;;52.10;2099.20;;;;;;4920604;29;20499;-86
2021/04/08 04:15:35;;;;;;;20.70;13.37;;;52.10;2099.20;;;;;;4920632;29;20083;-87
2021/04/08 04:18:05;;;;;;;28.00;14.40;;;52.10;2099.20;;;;;;4920598;29;20166;-86
2021/04/08 04:20:37;;;;;;;29.20;17.10;;;52.00;2099.20;;;;;;4922016;29;20028;-85
2021/04/08 04:23:05;;;;;;;24.67;16.70;;;51.90;2124.80;;;;;;4934726;23;20030;-89
2021/04/08 04:25:31;;;;;;;32.43;21.33;;;52.00;2124.80;;;;;;5019766;28;20041;-88
2021/04/08 04:27:57;;;;;;;35.47;23.43;;;52.10;2176.00;;;;;;5035064;28;20033;-84
2021/04/08 04:30:23;;;;;;;33.97;23.37;;;51.80;2176.00;;;;;;5040005;28;20049;-89
2021/04/08 04:32:52;;;;;;;35.13;22.43;;;52.00;2176.00;;;;;;5032836;28;20097;-85
2021/04/08 04:35:17;;;;;;;58.93;30.37;;;51.90;2201.60;;;;;;5035999;28;20040;-87
2021/04/08 04:37:52;;;;;;;57.83;32.30;;;51.90;2201.60;;;;;;5035280;28;20049;-89
2021/04/08 04:40:19;;;;;;;57.47;31.20;;;51.80;2201.60;;;;;;5018409;28;20124;-88
2021/04/08 04:42:45;;;;;;;74.70;42.93;;;51.80;2201.60;;;;;;5000194;28;20029;-87
2021/04/08 04:45:11;;;;;;;81.93;41.00;;;51.80;2227.20;;;;;;5015669;28;20417;-87
2021/04/08 04:47:49;;;;;;;103.63;55.93;;;51.80;2227.20;;;;;;5015861;28;20150;-89
2021/04/08 04:50:33;;;;;;;102.47;52.70;;;51.60;2227.20;;;;;;5020216;28;20044;-86
2021/04/08 04:52:59;;;;;;;87.60;50.70;;;51.80;2227.20;;;;;;5002119;28;20030;-87
2021/04/08 04:55:24;;;;;;;104.77;50.47;;;51.90;2201.60;;;;;;5001013;28;20426;-87
2021/04/08 04:57:50;;;;;;;107.43;56.00;;;51.90;2227.20;;;;;;5001160;28;20470;-88
2021/04/08 05:00:16;;;;;;;98.63;53.90;;;51.90;2227.20;;;;;;5000844;28;20026;-87
2021/04/08 05:02:42;;;;;;;91.77;52.23;;;52.00;2201.60;;;;;;5000512;28;20026;-87
2021/04/08 05:05:08;;;;;;;70.53;38.57;;;52.10;2201.60;;;;;;5000871;28;20037;-85
2021/04/08 05:07:34;;;;;;;68.00;39.20;;;76.80;2150.40;;;;;;4999973;28;20038;-87
2021/04/08 05:10:00;;;;;;;62.20;35.73;;;76.80;2150.40;;;;;;5000324;28;20038;-87
2021/04/08 05:12:25;;;;;;;43.87;25.20;;;76.80;2150.40;;;;;;5000695;28;20033;-87
2021/04/08 05:14:51;;;;;;;34.83;20.57;;;52.10;2150.40;;;;;;5002196;28;20104;-87
2021/04/08 05:17:17;;;;;;;66.07;34.63;;;52.10;2150.40;;;;;;5001213;28;20030;-87
2021/04/08 05:19:43;;;;;;;79.40;44.10;;;52.10;2176.00;;;;;;5001063;28;20442;-88
2021/04/08 05:22:09;;;;;;;72.47;40.17;;;52.00;2201.60;;;;;;5018848;28;20028;-88
2021/04/08 05:24:35;;;;;;;52.17;31.90;;;52.00;2201.60;;;;;;5020293;28;20054;-88
2021/04/08 05:27:00;;;;;;;57.17;31.63;;;52.00;2201.60;;;;;;5018161;28;20029;-88
2021/04/08 05:29:26;;;;;;;62.67;33.27;;;52.00;2201.60;;;;;;5009672;28;20061;-89
2021/04/08 05:31:55;;;;;;;61.50;34.87;;;52.10;2201.60;;;;;;5012474;28;20102;-91
2021/04/08 05:34:33;;;;;;;42.37;26.10;;;76.80;2201.60;;;;;;5011654;28;20161;-90
2021/04/08 05:37:05;;;;;;;55.77;29.47;;;76.80;2176.00;;;;;;5027961;28;20090;-91
2021/04/08 05:39:34;;;;;;;44.40;26.93;;;76.90;2150.40;;;;;;5042356;28;20022;-91
2021/04/08 05:42:36;;;;;;;44.17;26.30;;;76.80;2176.00;;;;;;5043810;28;20278;-92
2021/04/08 05:45:10;;;;;;;43.70;23.57;;;76.80;2176.00;;;;;;5043725;28;20030;-91
2021/04/08 05:47:39;;;;;;;34.23;22.20;;;77.00;2176.00;;;;;;5043704;28;20020;-92
2021/04/08 05:50:25;;;;;;;33.60;21.07;;;52.10;2201.60;;;;;;5040929;28;20026;-90
2021/04/08 05:53:00;;;;;;;33.13;18.53;;;77.00;2201.60;;;;;;5014402;28;20048;-90
2021/04/08 05:55:35;;;;;;;30.37;16.97;;;77.10;2150.40;;;;;;5006372;28;20022;-89
2021/04/08 05:58:01;;;;;;;30.57;17.20;;;77.20;2150.40;;;;;;5006200;28;20030;-90
2021/04/08 06:00:30;;;;;;;28.50;15.07;;;77.30;2124.80;;;;;;5008922;28;20072;-90
2021/04/08 06:02:56;;;;;;;28.20;16.87;;;77.30;2099.20;;;;;;5014105;28;20034;-89
2021/04/08 06:05:24;;;;;;;29.87;17.33;;;77.40;2099.20;;;;;;5022827;28;20093;-90
2021/04/08 06:08:29;;;;;;;36.27;19.40;;;77.50;2099.20;;;;;;5019617;28;20025;-93
2021/04/08 06:23:56;;;;;;;34.50;21.13;;;102.60;1945.60;;;;;;5474038;23;20063;31
2021/04/08 06:26:22;;;;;;;23.73;12.10;;;102.70;1868.80;;;;;;4952646;28;20054;-89
2021/04/08 06:28:48;;;;;;;20.23;13.33;;;102.80;1843.20;;;;;;4942148;29;20122;-90
2021/04/08 06:31:14;;;;;;;14.13;8.73;;;102.90;1740.80;;;;;;4923342;29;20042;-88
2021/04/08 06:33:40;;;;;;;25.47;15.73;;;102.90;1766.40;;;;;;4942458;29;20488;-90
2021/04/08 06:36:09;;;;;;;23.67;12.07;;;103.00;1715.20;;;;;;4923066;29;20027;-85
2021/04/08 06:38:41;;;;;;;11.63;5.03;;;103.20;1689.60;;;;;;4928094;29;20070;-89
2021/04/08 06:41:07;;;;;;;16.00;10.23;;;103.20;1612.80;;;;;;4939274;29;20031;-86
2021/04/08 06:43:39;;;;;;;18.93;9.53;;;103.30;1612.80;;;;;;4935189;29;20514;-87
2021/04/08 06:46:07;;;;;;;12.77;6.50;;;103.20;1689.60;;;;;;4937518;29;20114;-80
2021/04/08 06:48:46;;;;;;;13.23;5.70;;;103.30;1740.80;;;;;;4941796;29;20032;-80
2021/04/08 06:51:19;;;;;;;23.57;11.93;;;103.30;1664.00;;;;;;4941269;28;20043;-80
2021/04/08 06:53:46;;;;;;;33.47;19.45;;;103.30;1664.00;;;;;;4941061;29;20475;-80
2021/04/08 06:56:12;;;;;;;10.87;6.30;;;128.00;1664.00;;;;;;4969037;28;20042;-80
2021/04/08 06:58:40;;;;;;;9.23;5.83;;;128.10;1612.80;;;;;;4979059;28;20386;-81
2021/04/08 07:01:10;;;;;;;20.63;10.10;;;128.20;1612.80;;;;;;4960720;28;20077;-87
2021/04/08 07:03:38;;;;;;;9.13;4.67;;;128.10;1664.00;;;;;;4961882;28;20482;-84
2021/04/08 07:06:05;;;;;;;8.57;4.60;;;128.20;1638.40;;;;;;4955822;28;20034;-84
2021/04/08 07:08:32;;;;;;;6.03;3.63;;;128.30;1612.80;;;;;;4941297;28;20041;-82
2021/04/08 07:10:59;;;;;;;12.77;6.17;;;128.60;1587.20;;;;;;4937562;29;20182;-83
2021/04/08 07:13:30;;;;;;;15.17;7.57;;;128.40;1587.20;;;;;;4946478;28;20039;-81
2021/04/08 07:15:57;;;;;;;10.87;5.87;;;128.40;1638.40;;;;;;4921241;29;20043;-82
2021/04/08 07:18:24;;;;;;;7.90;4.90;;;128.40;1664.00;;;;;;4933368;29;20126;-81
2021/04/08 07:20:55;;;;;;;13.50;6.50;;;128.60;1638.40;;;;;;4931183;29;20031;-82
2021/04/08 07:26:05;;;;;;;4.83;3.13;;;128.70;1561.60;;;;;;4982616;23;20067;-81
2021/04/08 07:28:39;;;;;;;9.07;5.17;;;128.90;1561.60;;;;;;4960251;28;20046;-80
2021/04/08 07:31:28;;;;;;;10.60;3.80;;;153.60;1561.60;;;;;;4959695;28;20045;-82
2021/04/08 07:33:55;;;;;;;11.67;4.50;;;153.80;1510.40;;;;;;4959944;28;20025;-81
2021/04/08 07:36:25;;;;;;;6.27;3.50;;;154.00;1510.40;;;;;;4983226;28;20100;-81
2021/04/08 07:38:51;;;;;;;4.83;3.10;;;154.10;1536.00;;;;;;4978106;28;20027;-81
2021/04/08 07:41:29;;;;;;;5.73;3.83;;;154.20;1510.40;;;;;;4978435;28;20041;-83
2021/04/08 07:43:59;;;;;;;9.43;4.50;;;154.50;1484.80;;;;;;4978119;28;20018;-83
2021/04/08 07:46:44;;;;;;;8.90;5.83;;;179.30;1433.60;;;;;;4979092;28;20486;-85
2021/04/08 07:49:30;;;;;;;12.70;6.03;;;179.20;1484.80;;;;;;4959453;28;20027;-84
2021/04/08 07:52:21;;;;;;;9.80;5.80;;;179.20;1433.60;;;;;;4947487;29;20062;-81
2021/04/08 07:55:11;;;;;;;6.57;4.17;;;154.50;1433.60;;;;;;4938268;29;20027;-81
2021/04/08 07:57:52;;;;;;;18.27;11.13;;;154.50;1433.60;;;;;;4945863;28;20035;-80
2021/04/08 08:00:22;;;;;;;9.33;4.10;;;154.50;1408.00;;;;;;4954137;28;20442;-80
2021/04/08 08:02:48;;;;;;;10.13;6.27;;;154.10;1356.80;;;;;;4946444;28;20586;-81
2021/04/08 08:05:22;;;;;;;12.20;6.50;;;154.10;1356.80;;;;;;4938751;29;20067;-87
2021/04/08 08:07:48;;;;;;;41.70;22.57;;;154.00;1356.80;;;;;;4952811;28;20027;-87
2021/04/08 08:10:54;;;;;;;16.27;8.00;;;154.20;1408.00;;;;;;5012357;23;20113;-91
2021/04/08 08:13:31;;;;;;;15.20;7.93;;;154.50;1433.60;;;;;;4999366;23;20046;-85
2021/04/08 08:15:59;;;;;;;14.17;7.23;;;179.20;1356.80;;;;;;4973329;28;20069;-89
2021/04/08 08:18:32;;;;;;;8.97;5.90;;;179.40;1382.40;;;;;;4974449;28;20027;-92
2021/04/08 08:21:04;;;;;;;12.03;5.87;;;179.70;1382.40;;;;;;4974076;28;20445;-85
2021/04/08 08:23:44;;;;;;;17.17;10.40;;;179.60;1356.80;;;;;;4975726;28;20034;-85
2021/04/08 08:26:31;;;;;;;15.10;8.87;;;179.20;1433.60;;;;;;4978697;28;20026;-86
2021/04/08 08:29:25;;;;;;;22.10;11.27;;;179.20;1459.20;;;;;;4995200;28;20030;-86
2021/04/08 08:32:10;;;;;;;14.23;9.43;;;179.20;1459.20;;;;;;4902372;29;20127;-88
2021/04/08 08:34:48;;;;;;;14.20;7.33;;;179.50;1433.60;;;;;;4884283;29;20481;-88
2021/04/08 08:37:14;;;;;;;16.43;9.43;;;179.70;1408.00;;;;;;4902607;29;20036;-90
2021/04/08 08:39:42;;;;;;;17.70;9.50;;;179.90;1408.00;;;;;;4902978;29;20040;-89
2021/04/08 08:42:10;;;;;;;8.00;6.17;;;179.70;1382.40;;;;;;4904522;29;20044;-89
2021/04/08 08:44:39;;;;;;;9.97;6.53;;;180.00;1382.40;;;;;;4919358;29;20911;-86
2021/04/08 08:47:17;;;;;;;16.50;10.83;;;204.80;1382.40;;;;;;4922818;29;20095;-87
2021/04/08 08:49:43;;;;;;;17.03;8.97;;;180.00;1382.40;;;;;;4929343;29;20089;-84
2021/04/08 08:52:11;;;;;;;13.23;7.83;;;180.00;1305.60;;;;;;4937749;29;20036;-84
2021/04/08 08:54:39;;;;;;;12.47;7.63;;;180.00;1356.80;;;;;;4916909;29;20051;-83
2021/04/08 08:57:06;;;;;;;22.83;9.27;;;204.90;1356.80;;;;;;4902205;29;20123;-83
2021/04/08 08:59:32;;;;;;;10.90;6.00;;;205.10;1356.80;;;;;;4899388;29;20032;-85
2021/04/08 09:01:59;;;;;;;60.57;27.23;;;205.40;1228.80;;;;;;4899580;29;20064;-88
2021/04/08 09:04:26;;;;;;;15.95;7.25;;;205.00;1254.40;;;;;;4900218;29;20033;-87
2021/04/08 09:06:52;;;;;;;16.50;10.07;;;205.20;1177.60;;;;;;4907734;29;20152;-87
2021/04/08 09:09:21;;;;;;;11.07;8.27;;;205.40;1177.60;;;;;;4966734;28;20054;-85
2021/04/08 09:11:48;;;;;;;7.27;4.83;;;205.70;1254.40;;;;;;4975445;28;20115;-89
2021/04/08 09:14:14;;;;;;;9.37;4.47;;;230.60;1254.40;;;;;;4993301;28;20614;-87
2021/04/08 09:16:54;;;;;;;16.90;6.27;;;230.50;1177.60;;;;;;4984507;28;20038;-84
2021/04/08 09:19:31;;;;;;;10.00;4.45;;;230.60;1152.00;;;;;;4995463;28;20034;-85
2021/04/08 09:22:03;;;;;;;6.72;4.03;;;230.70;1126.40;;;;;;4995371;28;20033;-82
2021/04/08 09:24:45;;;;;;;6.45;4.10;;;230.80;1049.60;;;;;;4993512;28;20034;-89
2021/04/08 09:27:12;;;;;;;8.40;4.17;;;230.60;972.80;;;;;;4995278;28;20038;-82
2021/04/08 09:29:39;;;;;;;7.07;2.83;;;230.90;998.40;;;;;;4993639;28;20042;-83
2021/04/08 09:32:27;;;;;;;6.03;3.43;;;230.80;921.60;;;;;;4976344;28;20035;-86
2021/04/08 09:35:05;;;;;;;6.90;4.77;;;231.20;1049.60;;;;;;4986545;28;20042;-81
2021/04/08 09:37:46;;;;;;;11.32;7.20;;;256.00;1049.60;;;;;;4994655;28;20030;-95
2021/04/08 09:40:25;;;;;;;9.37;5.03;;;256.00;1024.00;;;;;;4993008;28;20138;-83
2021/04/08 09:43:06;;;;;;;5.80;4.25;;;230.80;1075.20;;;;;;4993198;28;20108;-83
2021/04/08 09:45:33;;;;;;;7.88;4.07;;;230.80;1075.20;;;;;;4994007;28;20030;-81
2021/04/08 09:48:07;;;;;;;9.05;4.43;;;230.80;1024.00;;;;;;4995900;28;20041;-82
2021/04/08 09:50:46;;;;;;;9.07;6.05;;;230.60;1024.00;;;;;;5000950;28;20029;-84
2021/04/08 09:53:13;;;;;;;5.05;2.33;;;230.90;972.80;;;;;;5007707;28;20018;-87
2021/04/08 09:55:43;;;;;;;5.40;3.00;;;230.50;972.80;;;;;;4998574;28;20375;-82
2021/04/08 09:58:09;;;;;;;19.92;9.55;;;230.70;972.80;;;;;;5003929;28;20026;-82
2021/04/08 10:00:35;;;;;;;7.38;4.03;;;231.10;1024.00;;;;;;4996134;28;20042;-82
2021/04/08 10:03:06;;;;;;;7.20;4.45;;;256.10;1075.20;;;;;;4995597;28;20374;-83
2021/04/08 10:05:38;;;;;;;7.95;4.60;;;256.50;1049.60;;;;;;4995673;28;20034;-83
2021/04/08 10:08:05;;;;;;;5.75;3.40;;;256.90;998.40;;;;;;4982322;28;20027;-83
2021/04/08 10:10:36;;;;;;;4.88;2.80;;;281.60;972.80;;;;;;5065510;23;20138;-82
2021/04/08 10:13:21;;;;;;;6.15;3.10;;;281.60;998.40;;;;;;4979391;28;20044;-83
2021/04/08 10:15:48;;;;;;;3.83;2.38;;;256.90;870.40;;;;;;4979359;28;20019;-84
2021/04/08 10:18:24;;;;;;;16.25;8.57;;;281.70;896.00;;;;;;4979896;28;20477;-82
2021/04/08 10:20:52;;;;;;;6.93;4.13;;;281.80;896.00;;;;;;4980174;28;20026;-82
2021/04/08 10:23:38;;;;;;;5.28;2.70;;;281.80;947.20;;;;;;4979643;28;20062;-82
2021/04/08 10:26:11;;;;;;;3.75;2.10;;;281.90;972.80;;;;;;4978670;28;20034;-82
2021/04/08 10:28:45;;;;;;;;;;;282.30;844.80;;;;;;4979448;28;20032;-82
2021/04/08 10:31:19;;;;;;;8.27;4.72;;;307.30;921.60;;;;;;4978519;28;19918;-82
2021/04/08 10:33:50;;;;;;;5.38;3.30;;;307.50;921.60;;;;;;4975966;28;20129;-82
2021/04/08 10:36:30;;;;;;;6.50;3.80;;;307.30;844.80;;;;;;4992574;28;20565;-83
2021/04/08 10:39:13;;;;;;;5.18;3.00;;;282.00;870.40;;;;;;4977109;28;20046;-82
2021/04/08 10:41:40;;;;;;;4.45;2.28;;;281.90;844.80;;;;;;4976602;28;20442;-82
2021/04/08 10:44:30;;;;;;;6.10;3.13;;;282.10;844.80;;;;;;4975156;28;20061;-81
2021/04/08 10:47:17;;;;;;;2.80;2.10;;;282.20;844.80;;;;;;4967142;28;20118;-87
2021/04/08 10:49:46;;;;;;;6.28;3.70;;;282.20;844.80;;;;;;4980881;28;20049;-87
2021/04/08 10:52:35;;;;;;;11.13;7.25;;;282.00;844.80;;;;;;4979452;28;20022;-87
2021/04/08 10:55:25;;;;;;;7.47;4.63;;;282.00;896.00;;;;;;4989552;28;20011;-82
2021/04/08 10:57:51;;;;;;;9.27;3.65;;;282.10;870.40;;;;;;5001324;28;20030;-84
2021/04/08 11:00:24;;;;;;;3.47;2.58;;;281.70;793.60;;;;;;4975668;28;20521;-82
2021/04/08 11:02:53;;;;;;;6.55;3.97;;;256.80;793.60;;;;;;4968188;28;20022;-81
2021/04/08 11:05:26;;;;;;;8.55;5.03;;;281.90;819.20;;;;;;4966399;28;20034;-84
2021/04/08 11:07:57;;;;;;;;;;;282.30;896.00;;;;;;4968146;28;20479;-80
2021/04/08 11:10:28;;;;;;;5.78;3.05;;;307.20;793.60;;;;;;4968184;28;19946;-80
2021/04/08 11:12:55;;;;;;;3.30;2.63;;;307.60;870.40;;;;;;4967596;28;20019;-80
2021/04/08 11:15:27;;;;;;;5.32;3.15;;;308.00;819.20;;;;;;4966055;28;20023;-80
2021/04/08 11:17:56;;;;;;;5.47;4.05;;;308.00;793.60;;;;;;4966763;28;20026;-81
2021/04/08 11:20:34;;;;;;;8.85;5.80;;;282.50;768.00;;;;;;4994282;28;20470;-79
2021/04/08 11:23:05;;;;;;;6.50;3.85;;;256.70;768.00;;;;;;4977911;28;20105;-81
2021/04/08 11:25:34;;;;;;;12.68;9.75;;;256.90;844.80;;;;;;4976600;28;20034;-80
2021/04/08 11:28:03;;;;;;;6.97;2.45;;;282.00;768.00;;;;;;4971749;28;20041;-81
2021/04/08 11:30:45;;;;;;;6.28;4.32;;;282.10;793.60;;;;;;4966378;28;20110;-82
2021/04/08 11:33:22;;;;;;;7.32;3.83;;;282.10;870.40;;;;;;4983151;28;20515;-82
2021/04/08 11:35:48;;;;;;;13.10;6.28;;;282.20;819.20;;;;;;4949134;28;20041;-80
2021/04/08 11:38:16;;;;;;;7.75;4.15;;;282.30;870.40;;;;;;4965102;28;20026;-82
2021/04/08 11:40:45;;;;;;;5.13;3.22;;;282.30;819.20;;;;;;4964972;28;20033;-83
2021/04/08 11:43:31;;;;;;;12.48;7.55;;;307.50;819.20;;;;;;4966144;28;20031;-83
2021/04/08 11:46:02;;;;;;;23.52;10.45;;;307.90;793.60;;;;;;4965904;28;20170;-80
2021/04/08 11:48:46;;;;;;;58.38;26.92;;;307.70;819.20;;;;;;4965203;28;20073;-83
2021/04/08 11:51:12;;;;;;;8.35;5.90;;;307.30;793.60;;;;;;4968040;28;20129;-82
2021/04/08 11:53:41;;;;;;;23.52;10.32;;;282.50;768.00;;;;;;4966066;28;20023;-80
2021/04/08 11:56:42;;;;;;;19.02;9.25;;;282.50;768.00;;;;;;4965552;28;20027;-82
2021/04/08 11:59:13;;;;;;;24.65;12.98;;;307.30;819.20;;;;;;4914323;29;20079;-81
2021/04/08 12:01:46;;;;;;;7.00;3.95;;;307.40;844.80;;;;;;4899242;29;20586;-82
2021/04/08 12:04:18;;;;;;;13.77;7.97;;;307.90;844.80;;;;;;4899002;29;20020;-82
2021/04/08 12:06:47;;;;;;;5.18;2.85;;;308.10;793.60;;;;;;4915025;29;20040;-81
2021/04/08 12:09:36;;;;;;;9.48;5.63;;;308.00;793.60;;;;;;4914424;29;20075;-81
2021/04/08 12:12:22;;;;;;;7.70;3.75;;;307.60;768.00;;;;;;4904896;29;20048;-82
2021/04/08 12:14:56;;;;;;;26.10;14.85;;;282.20;768.00;;;;;;4895994;29;20036;-81
2021/04/08 12:17:28;;;;;;;18.55;11.80;;;282.40;793.60;;;;;;4895925;29;20043;-84
2021/04/08 12:20:16;;;;;;;12.52;7.00;;;282.20;793.60;;;;;;4896804;29;20068;-82
2021/04/08 12:22:42;;;;;;;58.13;27.50;;;282.40;793.60;;;;;;4897140;29;20051;-87
2021/04/08 12:25:10;;;;;;;8.95;4.38;;;282.30;793.60;;;;;;4897017;29;20413;-80
2021/04/08 12:27:37;;;;;;;6.03;3.28;;;282.40;819.20;;;;;;4896218;29;20032;-81
2021/04/08 12:30:11;;;;;;;6.25;2.92;;;282.50;819.20;;;;;;4896166;29;20068;-83
2021/04/08 12:32:37;;;;;;;7.60;3.67;;;282.50;844.80;;;;;;4902806;28;20028;-81
2021/04/08 12:35:08;;;;;;;12.60;5.68;;;282.30;819.20;;;;;;4951187;28;20042;-80
2021/04/08 12:37:34;;;;;;;10.27;5.25;;;282.20;819.20;;;;;;4950711;28;20027;-80
2021/04/08 12:40:04;;;;;;;15.20;9.07;;;282.20;844.80;;;;;;4950489;28;20046;-82
2021/04/08 12:42:30;;;;;;;11.10;6.32;;;282.10;870.40;;;;;;4950214;28;20024;-84
2021/04/08 12:45:06;;;;;;;15.05;7.53;;;282.20;870.40;;;;;;4950651;28;20396;-83
2021/04/08 12:47:31;;;;;;;19.48;11.32;;;282.00;844.80;;;;;;4949893;28;20034;-81
2021/04/08 12:49:57;;;;;;;12.73;6.35;;;282.00;870.40;;;;;;4951530;28;20051;-82
2021/04/08 12:52:25;;;;;;;6.80;3.63;;;281.90;870.40;;;;;;4953801;28;20035;-81
2021/04/08 12:54:51;;;;;;;6.80;4.10;;;281.80;844.80;;;;;;4956503;28;20146;-81
2021/04/08 12:57:31;;;;;;;8.90;4.72;;;281.90;870.40;;;;;;4957054;28;20126;-82
2021/04/08 12:59:57;;;;;;;6.43;3.88;;;282.00;896.00;;;;;;4957262;28;20031;-82
2021/04/08 13:02:22;;;;;;;7.85;5.40;;;281.90;870.40;;;;;;4956162;28;20530;-81
2021/04/08 13:04:48;;;;;;;14.02;8.38;;;282.00;921.60;;;;;;4962500;23;20073;-81
2021/04/08 13:07:14;;;;;;;9.10;5.13;;;282.10;896.00;;;;;;4976302;28;20042;-82
2021/04/08 13:09:46;;;;;;;7.00;4.40;;;282.20;921.60;;;;;;4972028;28;20082;-81
2021/04/08 13:12:21;;;;;;;9.20;6.27;;;282.20;844.80;;;;;;4975522;28;20049;-81
2021/04/08 13:14:47;;;;;;;8.93;4.90;;;282.20;870.40;;;;;;4974971;28;20609;-83
2021/04/08 13:17:13;;;;;;;8.88;5.05;;;282.20;870.40;;;;;;4969834;28;20034;-83
2021/04/08 13:19:48;;;;;;;13.32;6.45;;;282.10;870.40;;;;;;4969489;28;20022;-82
2021/04/08 13:22:14;;;;;;;7.45;3.83;;;282.10;844.80;;;;;;4969233;28;20030;-80
2021/04/08 13:24:40;;;;;;;7.82;3.63;;;282.00;896.00;;;;;;4988068;28;20038;-80
2021/04/08 13:27:06;;;;;;;7.32;5.45;;;281.90;870.40;;;;;;4987407;28;20544;-79
2021/04/08 13:29:36;;;;;;;5.97;4.03;;;282.00;896.00;;;;;;4968872;28;20040;-79
2021/04/08 13:32:03;;;;;;;10.43;7.57;;;282.00;896.00;;;;;;4967531;28;20062;-79
2021/04/08 13:34:28;;;;;;;13.77;7.90;;;282.20;896.00;;;;;;4968978;28;20161;-80
2021/04/08 13:36:54;;;;;;;9.20;6.45;;;282.20;896.00;;;;;;4986518;28;20031;-80
2021/04/08 13:39:20;;;;;;;5.43;3.35;;;282.20;921.60;;;;;;4972036;28;20471;-80
2021/04/08 13:41:46;;;;;;;10.55;5.85;;;282.20;870.40;;;;;;4987177;28;20034;-81
2021/04/08 13:44:12;;;;;;;12.27;9.13;;;282.50;870.40;;;;;;4969914;28;20019;-80